AirNav   Air Wisconsin pilot careers
 
 913 users online  

3VA0 Ayres-Aicp Airport
Warrenton, Virginia, USA

GOING TO WARRENTON?


FAA INFORMATION EFFECTIVE 01 FEBRUARY 2018

Location

FAA Identifier: 3VA0
Lat/Long: 38-46-33.4170N / 077-54-37.9810W
38-46.556950N / 077-54.633017W
38.7759492 / -77.9105503
(estimated)
Elevation: 530 ft. / 162 m (estimated)
Variation: 09W (1985)
From city: 6 miles NW of WARRENTON, VA
Time zone: UTC -5 (UTC -4 during Daylight Saving Time)
Zip code: 20115

Airport Operations

Airport use: Private use. Permission required prior to landing
Activation date: 11/1973
Control tower: no
ARTCC: WASHINGTON CENTER
FSS: LEESBURG FLIGHT SERVICE STATION
Attendance: UNATNDD
Wind indicator: no
Segmented circle: no

Airport Communications

WX AWOS-3 at HWY (15 nm SE): 120.350 (540-788-4078)
WX AWOS-3 at CJR (15 nm S): 119.325 (540-727-0523)
WX AWOS-3 at FRR (18 nm NW): 121.85 (540-635-5377)
WX AWOS-3PT at HEF (19 nm E): PHONE 703-361-6160

Nearby radio navigation aids

VOR radial/distance  VOR name  Freq  Var
CSNr351/8.4CASANOVA VORTAC116.3006W
LDNr115/14.6LINDEN VORTAC114.3006W
AMLr253/22.8ARMEL VOR/DME113.5008W
MRBr192/36.7MARTINSBURG VORTAC112.1007W
BRVr324/37.2BROOKE VORTAC114.5009W

 
NDB name  Hdg/Dist  Freq  Var  ID
GOODWIN LAKE207/11.322708WGDX --. -.. -..-
NAILR009/19.335110WMSQ -- ... --.-
CAVERNS089/26.724509WLUA .-.. ..- .-
SHANNON335/37.423710WEZF . --.. ..-.
GEORGETOWN265/37.932309WGTN --. - -.
DAVEE289/38.122309WDAA -.. .- .-

Airport Services

Airframe service: NONE
Powerplant service: NONE

Runway Information

Runway 18/36

Dimensions: 1200 x 50 ft. / 366 x 15 m
Surface: turf
RUNWAY 18  RUNWAY 36
Traffic pattern: leftleft
Obstructions: treesfence

Airport Ownership and Management from official FAA records

Ownership: Privately-owned
Owner: HENRY AYRES
9652 CONDE RD
MARSHALL, VA 22115
Phone 703-364-1313
Manager: HENRY AYRES
9652 CONDE RD
MARSHALL, VA 22115
Phone 703-364-1313

Airport Operational Statistics

Aircraft based on the field: 1
Single engine airplanes: 1
    

Instrument Procedures

There are no published instrument procedures at 3VA0.

Some nearby airports with instrument procedures:

2VG2 - Upperville Airport (12 nm N)
KHWY - Warrenton-Fauquier Airport (15 nm SE)
KCJR - Culpeper Regional Airport (15 nm S)
KFRR - Front Royal-Warren County Airport (18 nm NW)
KHEF - Manassas Regional Airport/Harry P. Davis Field (19 nm E)
 
Loc | Ops | Rwys | IFR | FBO | Links
Com | Nav | Svcs | Stats | Notes

AirNav Hotels Sweepstakes
 
Area around 3VA0 (Ayres-Aicp Airport)
 
Road maps at: MapQuest Bing Google
 
Aerial photo
No photo
 
Sectional chart

 
Airport distance calculator
Flying to Ayres-Aicp Airport? Find the distance to fly.

From to 3VA0

Sunrise and sunset
Times for 21-Feb-2018
 Local
(UTC-5)
 Zulu
(UTC)
Morning civil twilight06:2911:29
Sunrise06:5611:56
Sunset17:5522:55
Evening civil twilight18:2223:22

Current date and time
Zulu (UTC)  22-Feb-2018 03:15:18
Local (UTC-5)  21-Feb-2018 22:15:18
 
METAR
KHWY 
15nm SE 
220255Z AUTO 01003KT 10SM OVC080 20/16 A3035 RMK AO2 T01970160
KFRR 
18nm NW 
220255Z AUTO 02004KT 10SM BKN045 BKN070 BKN120 18/15 A3037 RMK AO1
KCJR 
19nm SW 
220255Z AUTO 36007KT 10SM SCT060 OVC080 20/16 A3037 RMK AO2 T01960162
KHEF 
19nm E 
220256Z 01005KT 10SM OVC080 18/17 A3036 RMK AO2 SLP291 6//// T01830167 51016 PNO $
KIAD 
24nm NE 
220252Z 32005KT 10SM BKN038 OVC050 19/17 A3036 RMK AO2 SLP280 60002 T01940167 53021
KJYO 
24nm NE 
220255Z AUTO 35007KT 10SM SCT036 BKN041 OVC085 20/16 A3037 RMK AO2
KOKV 
24nm NW 
220255Z AUTO 00000KT 10SM OVC037 17/12 A3040 RMK AO2
KLUA 
28nm W 
220255Z AUTO 07004KT 1 1/2SM BR SCT049 BKN060 15/15 A3037 RMK AO2
TAF
KIAD 
24nm NE 
212118Z 2121/2224 20012G23KT P6SM FEW045 FEW100 FM212300 22009KT P6SM SCT035 BKN110 FM220300 29005KT P6SM SCT025 OVC060 FM220600 01008KT 5SM -DZ BR SCT025 OVC030 FM220900 01008KT 5SM -RADZ BR SCT025 OVC030 FM221500 03007KT 1 1/2SM -RADZ BR BKN008 OVC030
NOTAMs
Click for the latest NOTAMs
NOTAMs are issued by the DoD/FAA and will open in a separate window not controlled by AirNav.

 

 
 

Would you like to see your business listed on this page?

 If your business provides an interesting product or service to pilots, flight crews, aircraft, or users of the Ayres-Aicp Airport, you should consider listing it here.  To start the listing process, click on the button below
 
Add a business
 

Other Pages about Ayres-Aicp Airport

Update a link
 
Copyright © AirNav, LLC. All rights reserved. Privacy Policy  Contact